W. O. Watson — WDE2805 — position and weather

sailwx.info

Track history (hours):
 
Tides and Currents Weather Stations Pressure Air Temp Water Temp Dewpoint Dewpoint Depression Visibility Wind Speed Wind Dir Waves Ship Positions

W. O. Watson

Owner: Martin Operating Partnership,LP, Vidor, TX. More information available from US FCC via Universal Licensing System and Coast Guard Vessel Documentation Center.

Last reported at 2016-Jun-16 22:20 UTC. Time now 2016-Dec-04 02:04 UTC.
Position N 30°23' W 086°55'.
Warning: this ship's position is months out of date.

Length 32 m; draft 2.8 m.

MMSI: 367329860.

Date/timePositionNaut miles runAvg speedWind from/ knotsBaromVisibWave heightAir tempDewpointWater temp
2016-Jun-16 22:20N 30°23' W 086°55'5 6.0
2016-Jun-16 21:33N 30°24' W 086°49'10 5.0
2016-Jun-16 19:31N 30°24' W 086°37'5 5.1
2016-Jun-16 18:33N 30°25' W 086°32'6 5.6
2016-Jun-16 17:33N 30°26' W 086°25'6 5.6
2016-Jun-16 16:33N 30°26' W 086°19'5 5.4
2016-Jun-16 15:33N 30°26' W 086°12'3 0.7
2016-Jun-16 11:23N 30°27' W 086°09'4 4.3
2016-Jun-16 10:31N 30°26' W 086°14'6 6.0
2016-Jun-16 09:34N 30°26' W 086°20'6 6.2
2016-Jun-16 08:33N 30°26' W 086°28'6 6.0
2016-Jun-16 07:33N 30°24' W 086°34'8 6.0
2016-Jun-16 06:09N 30°24' W 086°44'4 5.9
2016-Jun-16 05:33N 30°24' W 086°48'  
Track history (hours):
 
Tides and Currents Weather Stations Pressure Air Temp Water Temp Dewpoint Dewpoint Depression Visibility Wind Speed Wind Dir Waves Ship Positions

W. O. Watson

Owner: Martin Operating Partnership,LP, Vidor, TX. More information available from US FCC via Universal Licensing System and Coast Guard Vessel Documentation Center.

Last reported at 2016-Jun-16 22:20 UTC. Time now 2016-Dec-04 02:04 UTC.
Position N 30°23' W 086°55'.
Warning: this ship's position is months out of date.

Length 32 m; draft 2.8 m.

MMSI: 367329860.

Date/timePositionNaut miles runAvg speedWind from/ knotsBaromVisibWave heightAir tempDewpointWater temp
2016-Jun-16 22:20N 30°23' W 086°55'5 6.0
2016-Jun-16 21:33N 30°24' W 086°49'10 5.0
2016-Jun-16 19:31N 30°24' W 086°37'5 5.1
2016-Jun-16 18:33N 30°25' W 086°32'6 5.6
2016-Jun-16 17:33N 30°26' W 086°25'6 5.6
2016-Jun-16 16:33N 30°26' W 086°19'5 5.4
2016-Jun-16 15:33N 30°26' W 086°12'3 0.7
2016-Jun-16 11:23N 30°27' W 086°09'4 4.3
2016-Jun-16 10:31N 30°26' W 086°14'6 6.0
2016-Jun-16 09:34N 30°26' W 086°20'6 6.2
2016-Jun-16 08:33N 30°26' W 086°28'6 6.0
2016-Jun-16 07:33N 30°24' W 086°34'8 6.0
2016-Jun-16 06:09N 30°24' W 086°44'4 5.9
2016-Jun-16 05:33N 30°24' W 086°48'  

Dump ship's entire track history